createdAt,value
2023-03-19T00:02:19.012Z,99.90
2023-03-19T00:06:01.716Z,99.90
2023-03-19T00:09:44.736Z,99.90
2023-03-19T00:13:26.957Z,99.90
2023-03-19T00:17:09.325Z,99.90
2023-03-19T00:20:52.321Z,99.90
2023-03-19T00:24:34.754Z,99.90
2023-03-19T00:28:17.202Z,99.90
2023-03-19T00:31:59.169Z,99.90
2023-03-19T00:35:41.523Z,99.90
2023-03-19T00:39:23.590Z,99.90
2023-03-19T00:43:06.425Z,99.90
2023-03-19T00:46:48.428Z,99.90
2023-03-19T00:50:30.434Z,99.90
2023-03-19T00:54:12.965Z,99.90
2023-03-19T00:57:54.903Z,99.90
2023-03-19T01:01:36.922Z,99.90
2023-03-19T01:05:18.910Z,99.90
2023-03-19T01:09:00.835Z,99.90
2023-03-19T01:12:42.770Z,99.90
2023-03-19T01:16:24.738Z,99.90
2023-03-19T01:20:13.121Z,99.90
2023-03-19T01:23:55.979Z,99.90
2023-03-19T01:27:38.720Z,99.90
2023-03-19T01:31:20.930Z,99.90
2023-03-19T01:35:02.968Z,99.90
2023-03-19T01:38:44.862Z,99.90
2023-03-19T01:42:26.858Z,99.90
2023-03-19T01:46:15.080Z,99.90
2023-03-19T01:49:58.656Z,99.90
2023-03-19T01:53:44.814Z,99.90
2023-03-19T01:57:26.826Z,99.90
2023-03-19T02:01:08.790Z,99.90
2023-03-19T02:04:56.533Z,99.90
2023-03-19T02:08:39.542Z,99.90
2023-03-19T02:12:21.613Z,99.90
2023-03-19T02:16:04.413Z,99.90
2023-03-19T02:20:21.537Z,99.90
2023-03-19T02:24:14.809Z,99.90
2023-03-19T02:27:57.943Z,99.90
2023-03-19T02:31:40.086Z,99.90
2023-03-19T02:35:22.113Z,99.90
2023-03-19T02:39:07.740Z,99.90
2023-03-19T02:42:49.710Z,99.90
2023-03-19T02:46:32.170Z,99.90
2023-03-19T02:50:14.314Z,99.90
2023-03-19T02:53:56.559Z,99.90
2023-03-19T02:57:38.514Z,99.90
2023-03-19T03:01:21.110Z,99.90
2023-03-19T03:05:03.261Z,99.90
2023-03-19T03:08:45.461Z,99.90
2023-03-19T03:12:27.389Z,99.90
2023-03-19T03:16:09.467Z,99.90
2023-03-19T03:19:51.737Z,99.90
2023-03-19T03:23:33.697Z,99.90
2023-03-19T03:27:15.711Z,99.90
2023-03-19T03:31:01.299Z,99.90
2023-03-19T03:34:43.706Z,99.90
2023-03-19T03:38:25.645Z,99.90
2023-03-19T03:42:08.195Z,99.90
2023-03-19T03:45:50.227Z,99.90
2023-03-19T03:49:32.441Z,99.90
2023-03-19T03:53:15.451Z,99.90
2023-03-19T03:56:57.421Z,99.90
2023-03-19T04:00:39.596Z,99.90
2023-03-19T04:04:22.150Z,99.90
2023-03-19T04:08:04.889Z,99.90
2023-03-19T04:11:48.727Z,99.90
2023-03-19T04:15:32.236Z,99.90
2023-03-19T04:19:14.570Z,99.90
2023-03-19T04:22:56.586Z,99.90
2023-03-19T04:26:38.885Z,99.90
2023-03-19T04:30:20.918Z,99.90
2023-03-19T04:34:02.892Z,99.90
2023-03-19T04:37:48.650Z,99.90
2023-03-19T04:41:31.017Z,99.90
2023-03-19T04:45:13.267Z,99.90
2023-03-19T04:48:56.087Z,99.90
2023-03-19T04:52:38.062Z,99.90
2023-03-19T04:56:19.976Z,99.90
2023-03-19T05:00:01.922Z,99.90
2023-03-19T05:03:43.853Z,99.90
2023-03-19T05:07:26.511Z,99.90
2023-03-19T05:11:08.645Z,99.90
2023-03-19T05:14:50.636Z,99.90
2023-03-19T05:18:33.769Z,99.90
2023-03-19T05:22:15.675Z,99.90
2023-03-19T05:26:03.414Z,99.90
2023-03-19T05:29:45.423Z,99.90
2023-03-19T05:33:27.434Z,99.90
2023-03-19T05:37:10.010Z,99.90
2023-03-19T05:40:52.531Z,99.90
2023-03-19T05:44:34.489Z,99.90
2023-03-19T05:48:17.505Z,99.90
2023-03-19T05:51:59.442Z,99.90
2023-03-19T05:55:41.570Z,99.90
2023-03-19T05:59:23.658Z,99.90
2023-03-19T06:03:05.793Z,99.90
2023-03-19T06:06:47.742Z,99.90
2023-03-19T06:10:29.779Z,99.90
2023-03-19T06:14:11.727Z,99.90
2023-03-19T06:17:53.773Z,99.90
2023-03-19T06:21:36.099Z,99.90
2023-03-19T06:25:18.378Z,99.90
2023-03-19T06:29:00.610Z,99.90
2023-03-19T06:32:42.833Z,99.90
2023-03-19T06:36:24.765Z,99.90
2023-03-19T06:40:07.000Z,99.90
2023-03-19T06:43:49.505Z,99.90
2023-03-19T06:47:43.964Z,99.90
2023-03-19T06:51:27.940Z,99.90
2023-03-19T06:55:12.113Z,99.90
2023-03-19T06:59:13.269Z,99.90
2023-03-19T07:02:55.423Z,99.90
2023-03-19T07:06:52.596Z,99.90
2023-03-19T07:10:36.167Z,99.90
2023-03-19T07:14:18.609Z,99.90
2023-03-19T07:23:15.603Z,99.90
2023-03-19T07:31:14.779Z,99.90
2023-03-19T07:35:39.515Z,99.90
2023-03-19T07:40:10.615Z,99.90
2023-03-19T07:45:11.768Z,99.90
2023-03-19T07:49:10.629Z,99.90
2023-03-19T07:53:41.740Z,99.90
2023-03-19T08:15:10.784Z,99.90
2023-03-19T08:23:06.613Z,99.90
2023-03-19T08:31:58.777Z,99.90
2023-03-19T08:50:00.559Z,99.90
2023-03-19T08:59:01.811Z,93.10
2023-03-19T09:16:28.258Z,72.40
2023-03-19T09:20:24.616Z,85.00
2023-03-19T09:24:55.045Z,82.00
2023-03-19T09:33:56.795Z,74.00
2023-03-19T09:43:04.285Z,72.40
2023-03-19T10:17:58.135Z,56.60
2023-03-19T10:48:26.416Z,66.50
2023-03-19T11:15:25.580Z,82.30
2023-03-19T11:24:22.457Z,85.80
2023-03-19T11:55:57.636Z,88.50
2023-03-19T12:47:48.022Z,94.50
2023-03-19T13:01:18.859Z,95.80
2023-03-19T13:31:43.538Z,98.10
2023-03-19T13:39:36.150Z,96.00
2023-03-19T13:44:06.513Z,96.60
2023-03-19T13:48:33.512Z,97.60
2023-03-19T14:02:09.242Z,99.50
2023-03-19T14:11:07.125Z,99.90
2023-03-19T14:15:37.751Z,99.90
2023-03-19T14:20:09.177Z,99.80
2023-03-19T14:29:08.865Z,99.90
2023-03-19T15:01:46.572Z,99.30
2023-03-19T15:24:22.454Z,99.90
2023-03-19T16:27:25.418Z,99.90
2023-03-19T16:48:50.010Z,99.90
2023-03-19T16:56:45.995Z,99.90
2023-03-19T17:10:13.340Z,99.90
2023-03-19T17:14:43.352Z,99.90
2023-03-19T17:19:13.322Z,99.90
2023-03-19T17:23:44.711Z,99.90
2023-03-19T17:28:12.747Z,99.90
2023-03-19T17:32:45.430Z,99.90
2023-03-19T17:41:45.247Z,99.90
2023-03-19T17:46:15.270Z,99.90
2023-03-19T17:55:15.347Z,99.90
2023-03-19T17:59:47.318Z,99.90
2023-03-19T18:08:47.481Z,99.90
2023-03-19T18:21:26.532Z,99.90
2023-03-19T18:25:23.540Z,99.90
2023-03-19T18:29:05.955Z,99.90
2023-03-19T18:32:51.991Z,99.90
2023-03-19T18:36:34.981Z,99.90
2023-03-19T18:40:22.889Z,99.90
2023-03-19T18:44:05.831Z,99.90
2023-03-19T18:47:49.586Z,99.90
2023-03-19T18:51:31.710Z,99.90
2023-03-19T18:55:14.888Z,99.90
2023-03-19T18:58:58.771Z,99.90
2023-03-19T19:02:40.738Z,99.90
2023-03-19T19:06:40.024Z,99.90
2023-03-19T19:10:33.016Z,99.90
2023-03-19T19:14:21.995Z,99.90
2023-03-19T19:18:19.986Z,99.90
2023-03-19T19:22:02.024Z,99.90
2023-03-19T19:25:46.401Z,99.90
2023-03-19T19:29:29.742Z,99.90
2023-03-19T19:33:23.857Z,99.90
2023-03-19T19:37:05.764Z,99.90
2023-03-19T19:40:51.228Z,99.90
2023-03-19T19:44:33.256Z,99.90
2023-03-19T19:48:27.530Z,99.90
2023-03-19T19:52:17.734Z,99.90
2023-03-19T19:56:00.666Z,99.90
2023-03-19T19:59:43.147Z,99.90
2023-03-19T20:03:31.450Z,99.90
2023-03-19T20:07:13.502Z,99.90
2023-03-19T20:10:56.944Z,99.90
2023-03-19T20:14:38.889Z,99.90
2023-03-19T20:18:22.581Z,99.90
2023-03-19T20:22:04.559Z,99.90
2023-03-19T20:25:47.177Z,99.90
2023-03-19T20:29:35.197Z,99.90
2023-03-19T20:33:18.409Z,99.90
2023-03-19T20:37:01.006Z,99.90
2023-03-19T20:40:49.917Z,99.90
2023-03-19T20:44:31.909Z,99.90
2023-03-19T20:48:16.725Z,99.90
2023-03-19T20:51:58.634Z,99.90
2023-03-19T20:55:42.807Z,99.90
2023-03-19T20:59:26.939Z,99.90
2023-03-19T21:03:18.616Z,99.90
2023-03-19T21:07:00.655Z,99.90
2023-03-19T21:10:44.247Z,99.90
2023-03-19T21:14:27.459Z,99.90
2023-03-19T21:18:10.120Z,99.90
2023-03-19T21:21:52.240Z,99.90
2023-03-19T21:25:35.794Z,99.90
2023-03-19T21:29:29.911Z,99.90
2023-03-19T21:33:29.465Z,99.90
2023-03-19T21:37:12.710Z,99.90
2023-03-19T21:40:59.651Z,99.90
2023-03-19T21:44:42.558Z,99.90
2023-03-19T21:48:35.281Z,99.90
2023-03-19T21:52:20.804Z,99.90
2023-03-19T21:56:02.912Z,99.90
2023-03-19T21:59:45.483Z,99.90
2023-03-19T22:03:27.864Z,99.90
2023-03-19T22:07:09.950Z,99.90
2023-03-19T22:10:57.666Z,99.90
2023-03-19T22:14:40.304Z,99.90
2023-03-19T22:18:22.825Z,99.90
2023-03-19T22:22:04.785Z,99.90
2023-03-19T22:25:49.750Z,99.90
2023-03-19T22:29:32.958Z,99.90
2023-03-19T22:33:23.435Z,99.90
2023-03-19T22:37:26.092Z,99.90
2023-03-19T22:41:29.478Z,99.90
2023-03-19T22:45:33.238Z,99.90
2023-03-19T22:49:17.248Z,99.90
2023-03-19T22:52:59.310Z,99.90
2023-03-19T22:56:41.328Z,99.90
2023-03-19T23:00:26.470Z,99.90
2023-03-19T23:04:15.649Z,99.90
2023-03-19T23:07:58.016Z,99.90
2023-03-19T23:11:40.157Z,99.90
2023-03-19T23:15:24.110Z,99.90
2023-03-19T23:19:06.111Z,99.90
2023-03-19T23:22:48.436Z,99.90
2023-03-19T23:26:34.675Z,99.90
2023-03-19T23:30:28.010Z,99.90
2023-03-19T23:34:11.870Z,99.90
2023-03-19T23:37:57.415Z,99.90
2023-03-19T23:41:48.928Z,99.90
2023-03-19T23:45:38.293Z,99.90
2023-03-19T23:49:32.620Z,99.90
2023-03-19T23:53:18.724Z,99.90
2023-03-19T23:57:06.655Z,99.90
